Time;durP1;ratioP1;P1;durP2;ratioP2;P2;SDS_P1;SDS_P2;PMS_P1;PMS_P2;Temp;Humidity;BMP_temperature;BMP_pressure;BME280_temperature;BME280_humidity;BME280_pressure;Samples;Min_cycle;Max_cycle;Signal;HPM_P1;HPM_P2
2022/10/31 00:01:27;;;;;;;8.07;4.55;;;22.80;52.60;21.90;101629.00;;;;5077128;28;20099;-74
2022/10/31 00:03:53;;;;;;;5.30;3.85;;;22.80;52.60;21.90;101627.00;;;;5051165;28;20032;-74
2022/10/31 00:06:19;;;;;;;7.47;4.87;;;22.80;52.70;21.90;101625.00;;;;5076338;28;20363;-74
2022/10/31 00:08:52;;;;;;;6.15;4.03;;;22.80;52.60;21.90;101615.00;;;;5058304;28;20097;-74
2022/10/31 00:11:18;;;;;;;8.10;3.95;;;22.70;52.60;21.90;101622.00;;;;5077119;28;20032;-74
2022/10/31 00:13:44;;;;;;;9.47;4.60;;;22.60;53.20;21.80;101613.00;;;;5075245;28;20031;-74
2022/10/31 00:16:17;;;;;;;6.43;4.20;;;22.70;52.60;21.90;101615.00;;;;5077251;28;20129;-74
2022/10/31 00:18:43;;;;;;;6.07;4.65;;;22.70;52.60;21.90;101621.00;;;;5065933;28;20032;-74
2022/10/31 00:21:09;;;;;;;5.65;4.30;;;22.70;52.50;21.90;101628.00;;;;5069004;28;20020;-74
2022/10/31 00:23:34;;;;;;;6.40;4.40;;;22.70;52.60;21.90;101625.00;;;;5075361;28;20041;-74
2022/10/31 00:26:04;;;;;;;8.65;4.28;;;22.70;52.60;21.80;101625.00;;;;5077285;28;20104;-74
2022/10/31 00:28:30;;;;;;;7.38;4.43;;;22.70;52.60;21.80;101627.00;;;;5075394;28;20040;-74
2022/10/31 00:31:01;;;;;;;8.57;4.30;;;22.70;52.60;21.80;101632.00;;;;5059028;28;20016;-74
2022/10/31 00:33:26;;;;;;;6.88;4.38;;;22.70;52.60;21.80;101631.00;;;;5057398;28;20033;-74
2022/10/31 00:35:52;;;;;;;5.25;4.22;;;22.70;52.60;21.80;101635.00;;;;5060410;28;20052;-74
2022/10/31 00:38:18;;;;;;;6.18;3.97;;;22.70;52.60;21.80;101632.00;;;;5075355;28;20515;-74
2022/10/31 00:40:44;;;;;;;6.57;4.20;;;22.70;53.30;21.80;101637.00;;;;5076769;28;20036;-74
2022/10/31 00:43:09;;;;;;;6.97;4.70;;;22.70;52.60;21.80;101632.00;;;;5075367;28;20115;-74
2022/10/31 00:45:35;;;;;;;5.67;4.57;;;22.70;52.60;21.80;101625.00;;;;5058957;28;20514;-74
2022/10/31 00:48:01;;;;;;;6.87;4.53;;;22.70;52.60;21.80;101634.00;;;;5075405;28;20052;-74
2022/10/31 00:50:27;;;;;;;6.40;4.37;;;22.70;52.60;21.80;101627.00;;;;5082151;28;20029;-74
2022/10/31 00:52:52;;;;;;;7.90;4.40;;;22.80;52.60;21.80;101628.00;;;;5075648;28;20150;-74
2022/10/31 00:55:18;;;;;;;7.37;4.27;;;22.70;52.60;21.80;101640.00;;;;5076566;28;20067;-74
2022/10/31 00:57:47;;;;;;;7.20;3.97;;;22.70;52.50;21.80;101639.00;;;;5075588;28;20048;-74
2022/10/31 01:00:13;;;;;;;7.10;4.47;;;22.70;52.50;21.80;101632.00;;;;5083877;28;20028;-74
2022/10/31 01:02:39;;;;;;;5.88;4.07;;;22.70;52.60;21.80;101621.00;;;;5057619;28;20032;-74
2022/10/31 01:05:05;;;;;;;5.00;4.00;;;22.70;52.50;21.80;101634.00;;;;5071869;28;20093;-74
2022/10/31 01:07:31;;;;;;;4.88;3.53;;;22.70;52.50;21.80;101642.00;;;;5072650;28;20031;-74
2022/10/31 01:09:56;;;;;;;5.10;3.63;;;22.70;52.60;21.80;101642.00;;;;5071833;28;20458;-74
2022/10/31 01:12:22;;;;;;;5.47;3.70;;;22.60;52.50;21.80;101645.00;;;;5053636;28;20087;-74
2022/10/31 01:14:48;;;;;;;5.17;3.73;;;22.60;52.50;21.80;101648.00;;;;5073157;28;20517;-74
2022/10/31 01:17:14;;;;;;;8.20;3.23;;;22.60;52.50;21.80;101649.00;;;;5073663;28;20545;-74
2022/10/31 01:19:39;;;;;;;4.72;3.42;;;22.70;52.50;21.80;101650.00;;;;5053646;28;20031;-74
2022/10/31 01:22:05;;;;;;;3.57;3.23;;;22.60;52.50;21.80;101652.00;;;;5071446;28;20387;-74
2022/10/31 01:24:31;;;;;;;6.10;3.70;;;22.70;52.50;21.80;101650.00;;;;5072957;28;20033;-74
2022/10/31 01:26:57;;;;;;;4.82;3.50;;;22.70;52.50;21.80;101649.00;;;;5072822;28;20086;-74
2022/10/31 01:29:23;;;;;;;4.83;3.33;;;22.70;52.50;21.80;101647.00;;;;5071585;28;20028;-74
2022/10/31 01:31:48;;;;;;;4.57;3.30;;;22.70;52.50;21.80;101656.00;;;;5073212;28;20063;-74
2022/10/31 01:34:16;;;;;;;4.53;3.43;;;22.60;52.40;21.80;101655.00;;;;5071195;28;20028;-73
2022/10/31 01:36:41;;;;;;;4.07;3.10;;;22.60;52.50;21.80;101652.00;;;;5055103;28;20939;-74
2022/10/31 01:39:11;;;;;;;4.07;3.22;;;22.60;52.40;21.80;101649.00;;;;5071365;28;20059;-73
2022/10/31 01:41:39;;;;;;;4.75;3.17;;;22.60;52.40;21.70;101646.00;;;;5054889;28;20060;-74
2022/10/31 01:44:14;;;;;;;5.90;3.17;;;22.60;52.40;21.70;101643.00;;;;5071178;28;20037;-74
2022/10/31 01:47:07;;;;;;;5.63;3.40;;;22.50;52.30;21.70;101637.00;;;;5072608;28;20035;-74
2022/10/31 01:49:41;;;;;;;5.15;3.10;;;22.50;52.40;21.70;101636.00;;;;5056110;28;20493;-74
2022/10/31 01:52:16;;;;;;;3.63;2.78;;;22.50;52.40;21.70;101638.00;;;;5071604;28;20100;-74
2022/10/31 01:54:46;;;;;;;5.72;3.03;;;22.60;52.40;21.70;101640.00;;;;5054783;28;20040;-74
2022/10/31 01:57:12;;;;;;;3.13;2.83;;;22.60;52.40;21.70;101646.00;;;;5052904;28;20450;-74
2022/10/31 01:59:42;;;;;;;2.70;2.42;;;22.50;52.30;21.70;101646.00;;;;5061836;28;20021;-74
2022/10/31 02:02:08;;;;;;;3.45;2.70;;;22.50;52.30;21.70;101646.00;;;;5056519;28;20041;-74
2022/10/31 02:04:34;;;;;;;3.72;2.80;;;22.50;52.30;21.70;101648.00;;;;5043196;28;20025;-74
2022/10/31 02:07:05;;;;;;;3.63;2.80;;;22.50;52.40;21.70;101656.00;;;;5052670;28;20474;-74
2022/10/31 02:09:33;;;;;;;4.28;2.53;;;22.50;52.30;21.70;101650.00;;;;5054397;28;20393;-74
2022/10/31 02:11:59;;;;;;;3.20;2.50;;;22.50;52.30;21.70;101654.00;;;;5053067;28;20037;-74
2022/10/31 02:14:27;;;;;;;3.47;2.80;;;22.50;52.30;21.70;101652.00;;;;5053545;28;20032;-74
2022/10/31 02:16:53;;;;;;;3.65;2.83;;;22.60;52.40;21.70;101650.00;;;;5064096;28;20417;-74
2022/10/31 02:19:37;;;;;;;;;;;22.50;52.30;21.60;101651.00;;;;5054730;28;20056;-74
2022/10/31 02:22:15;;;;;;;3.00;2.17;;;22.50;52.40;21.60;101641.00;;;;5070390;28;19919;-74
2022/10/31 02:25:10;;;;;;;4.30;2.58;;;22.50;52.20;21.60;101653.00;;;;5057614;28;20043;-74
2022/10/31 02:28:11;;;;;;;4.00;2.67;;;22.40;52.20;21.60;101652.00;;;;5051324;28;20097;-74
2022/10/31 02:30:57;;;;;;;2.88;2.33;;;22.40;52.20;21.60;101659.00;;;;5056694;28;20089;-74
2022/10/31 02:33:50;;;;;;;3.67;2.53;;;22.40;52.20;21.60;101656.00;;;;5052830;28;20486;-74
2022/10/31 02:36:30;;;;;;;3.65;2.40;;;22.40;52.20;21.60;101657.00;;;;5060534;28;20035;-74
2022/10/31 02:39:02;;;;;;;4.07;2.75;;;22.40;52.20;21.60;101647.00;;;;5052962;28;20478;-74
2022/10/31 02:41:42;;;;;;;3.22;2.45;;;22.40;52.20;21.50;101647.00;;;;5051991;28;20037;-74
2022/10/31 02:44:27;;;;;;;2.97;2.63;;;22.40;52.20;21.60;101653.00;;;;5050423;28;20025;-74
2022/10/31 02:46:56;;;;;;;3.38;2.38;;;22.40;52.30;21.60;101647.00;;;;5070696;28;20052;-74
2022/10/31 02:49:32;;;;;;;4.45;2.58;;;22.40;52.30;21.50;101649.00;;;;5051710;28;20068;-74
2022/10/31 02:51:58;;;;;;;2.75;2.38;;;22.40;52.60;21.50;101659.00;;;;5053368;28;20032;-74
2022/10/31 02:54:25;;;;;;;2.53;2.10;;;22.30;52.20;21.50;101659.00;;;;5052633;28;20037;-74
2022/10/31 02:56:55;;;;;;;2.35;2.10;;;22.30;52.20;21.50;101672.00;;;;5051175;28;20032;-74
2022/10/31 02:59:21;;;;;;;2.97;2.30;;;22.30;52.20;21.50;101670.00;;;;5054338;28;20028;-74
2022/10/31 03:02:09;;;;;;;2.83;2.27;;;22.30;52.20;21.50;101668.00;;;;5063014;28;20434;-74
2022/10/31 03:04:49;;;;;;;2.55;2.22;;;22.30;52.10;21.50;101663.00;;;;5038423;28;20462;-74
2022/10/31 03:07:27;;;;;;;5.20;2.40;;;22.30;52.10;21.50;101666.00;;;;5049377;28;20482;-74
2022/10/31 03:10:19;;;;;;;3.45;2.25;;;22.40;52.20;21.50;101662.00;;;;5037169;28;20054;-74
2022/10/31 03:13:20;;;;;;;2.10;1.90;;;22.30;52.10;21.50;101662.00;;;;5040621;28;20169;-74
2022/10/31 03:15:51;;;;;;;5.50;2.60;;;22.30;52.10;21.50;101659.00;;;;5050862;28;20017;-74
2022/10/31 03:18:32;;;;;;;5.97;2.05;;;22.30;52.20;21.50;101653.00;;;;5050485;28;20033;-74
2022/10/31 03:21:12;;;;;;;5.30;2.42;;;22.30;52.10;21.40;101656.00;;;;5025717;28;20024;-74
2022/10/31 03:23:38;;;;;;;2.42;1.95;;;22.20;52.10;21.40;101665.00;;;;5052628;28;20094;-74
2022/10/31 03:26:05;;;;;;;2.20;2.00;;;22.20;52.10;21.50;101654.00;;;;5049496;28;20024;-74
2022/10/31 03:28:48;;;;;;;3.17;2.28;;;22.30;52.20;21.50;101662.00;;;;5041043;28;20032;-74
2022/10/31 03:31:16;;;;;;;2.65;1.90;;;22.30;52.10;21.40;101674.00;;;;5053457;28;20506;-74
2022/10/31 03:33:42;;;;;;;3.35;2.40;;;22.20;52.00;21.40;101665.00;;;;5049975;28;20024;-74
2022/10/31 03:36:08;;;;;;;2.95;2.20;;;22.20;52.10;21.40;101670.00;;;;5057792;28;20028;-74
2022/10/31 03:38:34;;;;;;;3.13;2.08;;;22.20;52.10;21.40;101665.00;;;;5042492;28;20053;-74
2022/10/31 03:41:00;;;;;;;1.87;1.77;;;22.20;52.10;21.40;101671.00;;;;5052748;28;20021;-74
2022/10/31 03:43:33;;;;;;;2.83;2.10;;;22.20;52.00;21.40;101671.00;;;;5034537;28;20390;-74
2022/10/31 03:45:58;;;;;;;3.70;2.15;;;22.20;52.00;21.40;101678.00;;;;5042781;28;20039;-74
2022/10/31 03:48:24;;;;;;;2.57;1.80;;;22.20;52.00;21.40;101674.00;;;;5068710;28;20390;-74
2022/10/31 03:51:34;;;;;;;2.30;2.00;;;22.20;52.00;21.40;101672.00;;;;5084642;28;20025;-74
2022/10/31 03:54:32;;;;;;;2.38;2.17;;;22.20;51.90;21.40;101672.00;;;;5054272;28;20543;-74
2022/10/31 03:57:13;;;;;;;3.03;2.20;;;22.20;51.90;21.40;101673.00;;;;5054460;28;20508;-74
2022/10/31 03:59:44;;;;;;;2.38;2.17;;;22.20;51.90;21.40;101670.00;;;;5036999;28;20024;-74
2022/10/31 04:02:14;;;;;;;2.17;1.98;;;22.20;51.90;21.40;101672.00;;;;5027953;28;20099;-74
2022/10/31 04:04:40;;;;;;;2.25;1.98;;;22.20;51.90;21.40;101673.00;;;;5051499;28;20059;-74
2022/10/31 04:07:06;;;;;;;3.43;2.00;;;22.20;51.90;21.40;101672.00;;;;5057698;28;20386;-74
2022/10/31 04:09:33;;;;;;;2.73;2.03;;;22.10;51.90;21.30;101663.00;;;;5052341;28;20029;-74
2022/10/31 04:11:59;;;;;;;2.40;2.20;;;22.20;51.90;21.40;101661.00;;;;5049949;28;20383;-74
2022/10/31 04:14:26;;;;;;;1.80;1.65;;;22.20;51.90;21.40;101660.00;;;;5065208;28;20029;-74
2022/10/31 04:16:52;;;;;;;2.58;2.13;;;22.10;51.90;21.40;101669.00;;;;5044191;28;20016;-74
2022/10/31 04:19:17;;;;;;;2.43;2.23;;;22.20;51.80;21.40;101679.00;;;;5051016;28;20097;-74
2022/10/31 04:21:43;;;;;;;3.30;2.43;;;22.10;51.80;21.40;101678.00;;;;5050106;28;20171;-74
2022/10/31 04:24:09;;;;;;;2.80;1.87;;;22.10;51.80;21.30;101670.00;;;;5070357;28;20052;-74
2022/10/31 04:26:35;;;;;;;2.30;2.10;;;22.10;51.80;21.30;101674.00;;;;5070444;28;20032;-74
2022/10/31 04:29:01;;;;;;;2.40;2.20;;;22.10;51.80;21.30;101673.00;;;;5051045;28;20424;-74
2022/10/31 04:31:27;;;;;;;2.17;1.90;;;22.20;51.80;21.30;101670.00;;;;5068082;28;20029;-74
2022/10/31 04:33:52;;;;;;;2.33;1.98;;;22.20;51.80;21.40;101674.00;;;;5070572;28;20048;-74
2022/10/31 04:36:18;;;;;;;3.00;2.37;;;22.20;51.80;21.40;101677.00;;;;5070161;28;20036;-74
2022/10/31 04:38:44;;;;;;;2.60;2.40;;;22.10;51.70;21.30;101671.00;;;;5071825;28;20028;-74
2022/10/31 04:41:10;;;;;;;2.13;1.97;;;22.10;51.70;21.30;101679.00;;;;5073824;28;20546;-74
2022/10/31 04:43:35;;;;;;;2.43;2.23;;;22.10;51.70;21.30;101672.00;;;;5051649;28;20484;-74
2022/10/31 04:46:01;;;;;;;3.33;1.83;;;22.10;51.70;21.30;101678.00;;;;5074023;28;20407;-74
2022/10/31 04:48:27;;;;;;;2.30;2.10;;;22.20;51.70;21.30;101674.00;;;;5072089;28;20060;-74
2022/10/31 04:50:53;;;;;;;2.17;1.97;;;22.10;51.60;21.30;101681.00;;;;5073898;28;20023;-73
2022/10/31 04:53:19;;;;;;;2.17;2.00;;;22.20;51.60;21.30;101680.00;;;;5054614;28;20549;-74
2022/10/31 04:55:44;;;;;;;2.47;2.00;;;22.10;51.60;21.30;101682.00;;;;5055283;28;20107;-75
2022/10/31 04:58:10;;;;;;;4.00;2.33;;;22.10;51.60;21.30;101680.00;;;;5072003;28;20477;-74
2022/10/31 05:00:36;;;;;;;2.47;2.20;;;22.10;51.60;21.30;101683.00;;;;5073420;28;20449;-74
2022/10/31 05:03:01;;;;;;;2.50;2.30;;;22.10;51.60;21.30;101679.00;;;;5072197;28;20055;-73
2022/10/31 05:05:29;;;;;;;2.97;2.30;;;22.10;51.60;21.30;101670.00;;;;5071274;28;20056;-74
2022/10/31 05:07:55;;;;;;;2.90;2.60;;;22.10;51.60;21.30;101672.00;;;;5053977;28;20043;-74
2022/10/31 05:10:23;;;;;;;2.53;2.22;;;22.10;51.60;21.30;101664.00;;;;5072946;28;20469;-74
2022/10/31 05:12:54;;;;;;;2.40;2.20;;;22.10;51.60;21.30;101668.00;;;;5052932;28;20025;-74
2022/10/31 05:15:21;;;;;;;2.22;2.03;;;22.10;51.60;21.30;101666.00;;;;5072506;28;20025;-73
2022/10/31 05:17:47;;;;;;;2.30;2.03;;;22.10;51.60;21.30;101661.00;;;;5053986;28;20029;-74
2022/10/31 05:20:13;;;;;;;2.28;2.08;;;22.00;51.50;21.30;101659.00;;;;5072686;28;20046;-74
2022/10/31 05:22:57;;;;;;;2.67;1.98;;;22.10;51.60;21.20;101660.00;;;;5057040;28;20412;-74
2022/10/31 05:25:26;;;;;;;2.08;1.85;;;22.00;51.50;21.20;101661.00;;;;5079677;28;20474;-74
2022/10/31 05:27:51;;;;;;;1.80;1.70;;;22.00;51.50;21.30;101654.00;;;;5071701;28;20402;-74
2022/10/31 05:30:21;;;;;;;2.90;2.10;;;22.00;51.50;21.20;101653.00;;;;5054296;28;20029;-73
2022/10/31 05:32:48;;;;;;;2.20;2.00;;;22.00;51.40;21.20;101652.00;;;;5051198;28;20037;-74
2022/10/31 05:35:17;;;;;;;2.45;1.67;;;22.10;51.50;21.20;101661.00;;;;5054042;28;20025;-74
2022/10/31 05:37:43;;;;;;;2.28;1.83;;;22.00;51.40;21.20;101666.00;;;;5063014;28;20024;-74
2022/10/31 05:40:11;;;;;;;2.00;1.80;;;22.00;51.40;21.20;101655.00;;;;5058000;28;20044;-74
2022/10/31 05:42:39;;;;;;;2.58;1.70;;;22.00;51.40;21.20;101658.00;;;;5059344;28;20035;-73
2022/10/31 05:45:07;;;;;;;2.42;1.92;;;22.10;51.50;21.20;101663.00;;;;5072078;28;20051;-74
2022/10/31 05:47:33;;;;;;;1.75;1.65;;;22.00;51.40;21.20;101658.00;;;;5071126;28;20033;-74
2022/10/31 05:49:58;;;;;;;1.90;1.80;;;21.90;51.40;21.20;101662.00;;;;5067274;28;20046;-74
2022/10/31 05:52:24;;;;;;;1.67;1.57;;;22.10;51.40;21.20;101668.00;;;;5070499;28;20098;-73
2022/10/31 05:54:50;;;;;;;2.40;1.97;;;22.00;51.40;21.20;101651.00;;;;5070360;28;20039;-74
2022/10/31 05:57:16;;;;;;;2.00;1.80;;;22.10;51.50;21.20;101658.00;;;;5070305;28;20059;-74
2022/10/31 05:59:41;;;;;;;2.03;1.90;;;22.00;51.40;21.20;101661.00;;;;5070235;28;20119;-74
2022/10/31 06:02:07;;;;;;;1.70;1.53;;;22.00;51.40;21.20;101661.00;;;;5069769;28;20116;-74
2022/10/31 06:04:33;;;;;;;2.83;1.50;;;22.00;51.30;21.20;101664.00;;;;5071658;28;21043;-74
2022/10/31 06:06:59;;;;;;;1.60;1.50;;;22.00;51.30;21.20;101656.00;;;;5072655;28;20120;-74
2022/10/31 06:09:24;;;;;;;1.67;1.57;;;22.00;51.30;21.20;101663.00;;;;5070658;28;20080;-74
2022/10/31 06:11:50;;;;;;;1.87;1.50;;;22.00;51.30;21.20;101668.00;;;;5070015;28;20112;-74
2022/10/31 06:14:16;;;;;;;1.70;1.60;;;22.00;51.30;21.20;101663.00;;;;5071628;28;20112;-74
2022/10/31 06:16:41;;;;;;;1.47;1.37;;;22.00;51.30;21.20;101665.00;;;;5071558;28;20150;-74
2022/10/31 06:19:07;;;;;;;2.13;1.50;;;21.90;51.30;21.20;101663.00;;;;5066761;28;20122;-74
2022/10/31 06:21:33;;;;;;;2.07;1.77;;;22.00;51.30;21.20;101666.00;;;;5069202;28;20059;-74
2022/10/31 06:23:59;;;;;;;1.67;1.57;;;22.00;51.30;21.20;101658.00;;;;5067803;28;20107;-74
2022/10/31 06:26:24;;;;;;;1.77;1.67;;;22.00;51.30;21.20;101669.00;;;;5053598;28;20040;-74
2022/10/31 06:28:50;;;;;;;1.47;1.37;;;22.00;51.30;21.20;101665.00;;;;5070247;28;20043;-74
2022/10/31 06:31:16;;;;;;;1.40;1.30;;;22.00;51.30;21.10;101663.00;;;;5071219;28;20545;-74
2022/10/31 06:33:42;;;;;;;1.53;1.40;;;22.00;51.30;21.10;101661.00;;;;5068085;28;20063;-74
2022/10/31 06:36:08;;;;;;;1.45;1.35;;;21.90;51.30;21.10;101657.00;;;;5053680;28;20033;-74
2022/10/31 06:38:34;;;;;;;1.52;1.42;;;21.90;51.30;21.10;101660.00;;;;5022198;28;20037;-74
2022/10/31 06:41:04;;;;;;;2.33;1.53;;;21.90;51.30;21.10;101666.00;;;;5059149;28;20466;-74
2022/10/31 06:43:30;;;;;;;1.33;1.23;;;22.00;51.30;21.10;101653.00;;;;5050879;28;20470;-74
2022/10/31 06:45:56;;;;;;;1.50;1.40;;;21.90;51.20;21.10;101662.00;;;;5058076;28;20355;-74
2022/10/31 06:48:21;;;;;;;1.57;1.47;;;22.00;51.30;21.10;101666.00;;;;5048301;28;20895;-74
2022/10/31 06:50:47;;;;;;;1.55;1.42;;;21.90;51.20;21.10;101665.00;;;;5052010;28;20017;-74
2022/10/31 06:53:14;;;;;;;1.40;1.30;;;21.90;51.20;21.10;101672.00;;;;5065759;28;20029;-76
2022/10/31 06:55:39;;;;;;;1.58;1.48;;;22.00;51.30;21.10;101672.00;;;;5059733;28;20095;-77
2022/10/31 06:58:05;;;;;;;1.80;1.70;;;21.90;51.90;21.10;101679.00;;;;5035518;28;20039;-76
2022/10/31 07:00:31;;;;;;;1.77;1.60;;;22.00;51.20;21.10;101678.00;;;;5060371;28;20033;-76
2022/10/31 07:03:04;;;;;;;2.38;1.75;;;22.00;51.20;21.10;101683.00;;;;5048079;28;20059;-76
2022/10/31 07:05:30;;;;;;;1.55;1.45;;;22.00;51.30;21.10;101683.00;;;;5050181;28;20037;-77
2022/10/31 07:08:01;;;;;;;2.05;1.50;;;21.90;51.20;21.10;101683.00;;;;5060790;28;20123;-77
2022/10/31 07:10:30;;;;;;;1.50;1.40;;;21.90;51.20;21.10;101688.00;;;;5048932;28;20040;-77
2022/10/31 07:13:00;;;;;;;1.92;1.80;;;21.90;51.20;21.10;101684.00;;;;5064493;28;20024;-76
2022/10/31 07:15:27;;;;;;;1.48;1.38;;;22.00;51.30;21.10;101688.00;;;;5067051;28;20039;-76
2022/10/31 07:17:53;;;;;;;1.52;1.42;;;21.90;51.20;21.10;101683.00;;;;5068587;28;20021;-76
2022/10/31 07:20:19;;;;;;;2.07;1.87;;;21.90;51.20;21.10;101689.00;;;;5070018;28;20028;-76
2022/10/31 07:22:45;;;;;;;1.45;1.35;;;21.90;51.30;21.10;101690.00;;;;5069449;28;20506;-76
2022/10/31 07:25:11;;;;;;;2.03;1.83;;;21.90;51.20;21.10;101701.00;;;;5070343;28;20024;-76
2022/10/31 07:27:41;;;;;;;1.63;1.52;;;21.90;51.90;21.10;101700.00;;;;5052383;28;20469;-77
2022/10/31 07:30:08;;;;;;;1.90;1.80;;;21.90;51.20;21.10;101699.00;;;;5069457;28;20021;-76
2022/10/31 07:32:48;;;;;;;1.90;1.75;;;21.90;51.20;21.10;101690.00;;;;5047367;28;20040;-76
2022/10/31 07:35:22;;;;;;;1.75;1.65;;;21.90;51.20;21.10;101697.00;;;;5048750;28;20029;-76
2022/10/31 07:37:48;;;;;;;1.75;1.65;;;21.90;51.20;21.10;101695.00;;;;5049960;28;20030;-76
2022/10/31 07:40:14;;;;;;;1.73;1.63;;;21.90;51.20;21.10;101694.00;;;;5071089;28;20107;-76
2022/10/31 07:42:58;;;;;;;1.87;1.70;;;21.90;51.20;21.10;101690.00;;;;5048901;28;20074;-76
2022/10/31 07:45:24;;;;;;;1.85;1.73;;;21.90;51.20;21.10;101701.00;;;;5069097;28;20442;-76
2022/10/31 07:47:51;;;;;;;1.87;1.70;;;21.90;51.90;21.10;101691.00;;;;5067514;28;20440;-76
2022/10/31 07:50:20;;;;;;;1.63;1.52;;;21.90;51.20;21.10;101694.00;;;;5068403;28;20093;-76
2022/10/31 07:52:46;;;;;;;1.88;1.55;;;21.90;51.20;21.10;101695.00;;;;5045432;28;20024;-76
2022/10/31 07:55:12;;;;;;;1.80;1.60;;;21.90;51.20;21.10;101700.00;;;;5070478;28;20036;-76
2022/10/31 07:57:37;;;;;;;3.13;2.22;;;22.00;51.20;21.10;101705.00;;;;5069021;28;20378;-76
2022/10/31 08:00:08;;;;;;;1.90;1.70;;;22.00;51.20;21.10;101712.00;;;;5052550;28;20053;-76
2022/10/31 08:02:34;;;;;;;1.80;1.70;;;21.90;51.20;21.10;101712.00;;;;5068878;28;20040;-76
2022/10/31 08:05:01;;;;;;;1.80;1.67;;;22.00;51.20;21.10;101705.00;;;;5071143;28;20394;-76
2022/10/31 08:07:28;;;;;;;1.67;1.52;;;21.90;51.20;21.10;101705.00;;;;5029556;28;20037;-76
2022/10/31 08:09:54;;;;;;;1.83;1.70;;;22.00;51.20;21.10;101702.00;;;;5052800;28;20521;-76
2022/10/31 08:12:19;;;;;;;1.98;1.77;;;22.00;51.20;21.10;101687.00;;;;5056817;28;20064;-75
2022/10/31 08:14:45;;;;;;;2.43;2.10;;;22.00;51.20;21.10;101696.00;;;;5073945;28;20475;-75
2022/10/31 08:17:11;;;;;;;2.50;2.03;;;22.00;51.20;21.10;101693.00;;;;5054338;28;20542;-76
2022/10/31 08:19:37;;;;;;;2.30;2.10;;;22.00;51.20;21.10;101687.00;;;;5070124;28;20032;-82
2022/10/31 08:22:02;;;;;;;2.43;1.97;;;22.00;51.20;21.10;101685.00;;;;5053227;28;20040;-79
2022/10/31 08:24:28;;;;;;;2.10;1.90;;;22.00;51.20;21.10;101686.00;;;;5055277;28;20052;-75
2022/10/31 08:26:54;;;;;;;2.87;1.90;;;22.00;51.20;21.10;101677.00;;;;5056422;28;20120;-75
2022/10/31 08:29:20;;;;;;;2.63;2.37;;;22.00;51.10;21.10;101676.00;;;;5072010;28;20115;-75
2022/10/31 08:31:45;;;;;;;2.60;2.20;;;22.00;51.20;21.10;101676.00;;;;5072139;28;20648;-75
2022/10/31 08:34:11;;;;;;;2.43;2.23;;;22.00;51.20;21.10;101676.00;;;;5073910;28;20169;-75
2022/10/31 08:36:37;;;;;;;2.40;2.20;;;22.00;51.20;21.10;101681.00;;;;5074207;28;20103;-78
2022/10/31 08:39:03;;;;;;;2.63;2.03;;;22.10;51.20;21.10;101677.00;;;;5071477;28;20865;-75
2022/10/31 08:41:29;;;;;;;3.87;2.00;;;22.00;51.20;21.10;101683.00;;;;5070427;28;20567;-80
2022/10/31 08:43:55;;;;;;;2.95;1.90;;;22.00;51.20;21.10;101682.00;;;;5054677;28;20505;-75
2022/10/31 08:46:20;;;;;;;2.40;2.20;;;22.10;51.30;21.10;101675.00;;;;5071972;28;20040;-78
2022/10/31 08:48:49;;;;;;;2.77;2.13;;;22.10;51.30;21.10;101673.00;;;;5053365;28;20033;-75
2022/10/31 08:51:15;;;;;;;2.63;2.30;;;22.10;51.30;21.10;101668.00;;;;5068357;28;20454;-74
2022/10/31 08:53:41;;;;;;;2.33;2.13;;;22.00;51.20;21.20;101664.00;;;;5066645;28;20054;-74
2022/10/31 08:56:07;;;;;;;2.67;2.33;;;22.10;51.30;21.20;101660.00;;;;5071838;28;20051;-74
2022/10/31 08:58:32;;;;;;;2.63;2.33;;;22.10;51.30;21.10;101666.00;;;;5069778;28;20028;-75
2022/10/31 09:01:00;;;;;;;3.13;2.47;;;22.10;51.30;21.20;101662.00;;;;5068333;28;20032;-75
2022/10/31 09:03:28;;;;;;;2.90;2.60;;;22.00;51.20;21.20;101665.00;;;;5052486;28;20032;-75
2022/10/31 09:05:59;;;;;;;3.05;2.58;;;22.10;51.30;21.20;101663.00;;;;5072157;28;20023;-75
2022/10/31 09:08:25;;;;;;;2.50;2.22;;;22.10;51.30;21.20;101662.00;;;;5071196;28;20543;-75
2022/10/31 09:10:50;;;;;;;3.10;2.53;;;22.10;51.30;21.20;101656.00;;;;5073128;28;20046;-74
2022/10/31 09:13:19;;;;;;;3.50;2.63;;;22.10;51.30;21.20;101653.00;;;;5071519;28;20040;-75
2022/10/31 09:15:46;;;;;;;3.30;3.00;;;22.10;51.30;21.20;101653.00;;;;5039520;28;20470;-75
2022/10/31 09:18:14;;;;;;;3.65;2.30;;;22.10;51.30;21.20;101645.00;;;;5055948;28;20032;-74
2022/10/31 09:20:41;;;;;;;2.78;2.53;;;22.10;51.30;21.20;101642.00;;;;5083969;28;20047;-74
2022/10/31 09:23:14;;;;;;;3.03;2.72;;;22.10;52.00;21.20;101644.00;;;;5070440;28;20028;-75
2022/10/31 09:25:41;;;;;;;3.95;3.10;;;22.10;51.30;21.20;101651.00;;;;5072917;28;20478;-75
2022/10/31 09:28:08;;;;;;;3.28;2.97;;;22.10;51.30;21.20;101648.00;;;;5045277;28;20020;-74
2022/10/31 09:30:34;;;;;;;3.20;2.90;;;22.10;51.30;21.20;101652.00;;;;5055293;28;20029;-75
2022/10/31 09:33:11;;;;;;;3.22;2.53;;;22.10;51.30;21.20;101658.00;;;;5053410;28;20032;-75
2022/10/31 09:35:37;;;;;;;3.53;2.90;;;22.10;51.30;21.20;101663.00;;;;5072880;28;20471;-74
2022/10/31 09:38:06;;;;;;;4.00;3.22;;;22.10;51.30;21.20;101659.00;;;;5071886;28;20654;-75
2022/10/31 09:40:39;;;;;;;3.63;3.08;;;22.10;51.30;21.20;101650.00;;;;5072546;28;20431;-75
2022/10/31 09:43:33;;;;;;;4.28;3.20;;;22.10;51.30;21.20;101653.00;;;;5053655;28;20497;-75
2022/10/31 09:46:35;;;;;;;3.38;3.08;;;22.10;51.30;21.20;101650.00;;;;5057982;28;20432;-75
2022/10/31 09:49:41;;;;;;;3.78;2.88;;;22.20;51.40;21.20;101650.00;;;;5056088;28;20264;-75
2022/10/31 09:52:21;;;;;;;5.88;4.05;;;22.10;51.40;21.20;101648.00;;;;5066185;28;20025;-75
2022/10/31 09:54:56;;;;;;;5.43;3.60;;;22.10;51.40;21.20;101651.00;;;;5050739;28;20115;-75
2022/10/31 09:57:31;;;;;;;5.93;3.45;;;22.10;51.40;21.20;101646.00;;;;5052537;28;20044;-75
2022/10/31 09:59:56;;;;;;;3.88;3.38;;;22.10;51.40;21.20;101645.00;;;;5054278;28;20474;-74
2022/10/31 10:02:38;;;;;;;4.22;3.72;;;22.10;51.50;21.20;101646.00;;;;5038095;28;20051;-74
2022/10/31 10:05:17;;;;;;;4.28;3.60;;;22.20;51.50;21.20;101649.00;;;;5054055;28;20082;-75
2022/10/31 10:08:10;;;;;;;5.47;3.80;;;22.20;51.50;21.20;101647.00;;;;5057382;28;20504;-74
2022/10/31 10:11:16;;;;;;;5.75;3.63;;;22.20;51.50;21.20;101636.00;;;;5057470;28;20037;-74
2022/10/31 10:14:13;;;;;;;4.03;3.50;;;22.20;51.50;21.20;101629.00;;;;5052206;28;20032;-74
2022/10/31 10:17:05;;;;;;;5.88;4.10;;;22.20;51.50;21.20;101630.00;;;;5071468;28;20570;-74
2022/10/31 10:20:19;;;;;;;5.55;3.90;;;22.20;51.50;21.20;101630.00;;;;5054884;28;20438;-75
2022/10/31 10:23:12;;;;;;;5.25;3.80;;;22.20;51.50;21.20;101638.00;;;;5054148;28;20533;-74
2022/10/31 10:25:40;;;;;;;5.95;4.38;;;22.20;51.50;21.20;101635.00;;;;5072116;28;20075;-75
2022/10/31 10:28:40;;;;;;;5.65;3.78;;;22.10;51.50;21.20;101622.00;;;;5052511;28;20036;-74
2022/10/31 10:31:18;;;;;;;5.93;3.70;;;22.20;51.60;21.20;101631.00;;;;5004142;28;20111;-75
2022/10/31 10:34:05;;;;;;;3.75;3.25;;;22.20;51.60;21.20;101628.00;;;;5052825;28;20116;-74
2022/10/31 10:37:19;;;;;;;5.57;4.03;;;22.20;51.60;21.20;101618.00;;;;5070290;28;20036;-74
2022/10/31 10:39:48;;;;;;;5.45;4.47;;;22.20;51.60;21.20;101627.00;;;;5014771;28;20059;-74
2022/10/31 10:47:52;;;;;;;5.88;4.47;;;22.30;51.60;21.30;101620.00;;;;5048362;28;20044;-75
2022/10/31 10:50:19;;;;;;;6.35;4.50;;;22.30;51.70;21.30;101613.00;;;;5062559;28;20037;-75
2022/10/31 10:53:20;;;;;;;6.50;4.80;;;22.30;51.70;21.30;101604.00;;;;5052550;28;20124;-75
2022/10/31 10:56:17;;;;;;;6.32;4.78;;;22.30;51.70;21.30;101607.00;;;;5055054;28;20111;-75
2022/10/31 10:58:44;;;;;;;6.28;4.40;;;22.30;51.70;21.30;101606.00;;;;5051812;28;20017;-76
2022/10/31 11:01:14;;;;;;;6.03;4.40;;;22.30;51.60;21.30;101597.00;;;;5070972;28;20486;-75
2022/10/31 11:03:40;;;;;;;7.30;5.03;;;22.30;51.60;21.30;101593.00;;;;5051829;28;20027;-75
2022/10/31 11:06:22;;;;;;;6.57;4.57;;;22.30;51.70;21.30;101594.00;;;;5052575;28;20031;-76
2022/10/31 11:08:48;;;;;;;6.93;4.68;;;22.30;51.70;21.30;101588.00;;;;5058706;28;20028;-76